createdAt,value
2019-05-22T00:04:12.131Z,85.25
2019-05-22T00:06:41.515Z,84.55
2019-05-22T00:09:08.930Z,84.91
2019-05-22T00:11:34.855Z,84.45
2019-05-22T00:13:59.685Z,84.77
2019-05-22T00:16:24.509Z,84.91
2019-05-22T00:18:50.694Z,84.59
2019-05-22T00:21:16.699Z,84.01
2019-05-22T00:23:43.784Z,84.32
2019-05-22T00:26:08.266Z,84.63
2019-05-22T00:28:33.449Z,85.37
2019-05-22T00:30:59.280Z,85.32
2019-05-22T00:33:23.816Z,85.52
2019-05-22T00:35:49.936Z,84.86
2019-05-22T00:38:15.319Z,85.52
2019-05-22T00:40:44.974Z,85.42
2019-05-22T00:43:13.969Z,84.76
2019-05-22T00:45:37.382Z,84.66
2019-05-22T00:48:03.177Z,83.88
2019-05-22T00:50:33.549Z,82.95
2019-05-22T00:53:02.682Z,82.01
2019-05-22T00:55:39.795Z,80.13
2019-05-22T00:58:08.152Z,81.09
2019-05-22T01:00:35.575Z,82.33
2019-05-22T01:03:02.275Z,82.25
2019-05-22T01:05:29.555Z,83.34
2019-05-22T01:07:55.726Z,83.52
2019-05-22T01:10:22.841Z,83.42
2019-05-22T01:12:51.403Z,82.90
2019-05-22T01:15:20.528Z,81.32
2019-05-22T01:17:46.646Z,81.25
2019-05-22T01:20:17.910Z,82.41
2019-05-22T01:22:42.578Z,82.41
2019-05-22T01:25:10.509Z,83.73
2019-05-22T01:27:36.636Z,82.02
2019-05-22T01:30:03.508Z,82.06
2019-05-22T01:32:33.635Z,82.74
2019-05-22T01:34:58.169Z,83.73
2019-05-22T01:37:24.056Z,82.96
2019-05-22T01:39:56.084Z,83.63
2019-05-22T01:42:25.250Z,83.11
2019-05-22T01:45:04.189Z,82.61
2019-05-22T01:47:24.480Z,82.34
2019-05-22T01:49:52.081Z,81.73
2019-05-22T01:52:17.242Z,82.14
2019-05-22T01:54:43.035Z,83.02
2019-05-22T01:57:10.260Z,83.61
2019-05-22T01:59:35.315Z,83.78
2019-05-22T02:01:59.858Z,83.12
2019-05-22T02:04:26.796Z,82.97
2019-05-22T02:06:51.423Z,83.03
2019-05-22T02:09:30.939Z,82.54
2019-05-22T02:12:02.661Z,80.35
2019-05-22T02:14:28.134Z,81.41
2019-05-22T02:16:56.635Z,81.36
2019-05-22T02:19:20.768Z,81.19
2019-05-22T02:21:45.762Z,81.04
2019-05-22T02:24:11.796Z,80.66
2019-05-22T02:26:37.123Z,81.16
2019-05-22T02:29:02.830Z,82.64
2019-05-22T02:31:29.322Z,82.41
2019-05-22T02:34:04.737Z,82.04
2019-05-22T02:36:29.432Z,82.35
2019-05-22T02:38:54.766Z,83.32
2019-05-22T02:41:20.483Z,83.92
2019-05-22T02:43:44.934Z,82.59
2019-05-22T02:46:11.944Z,83.95
2019-05-22T02:48:37.284Z,83.61
2019-05-22T02:51:01.945Z,84.36
2019-05-22T02:53:28.620Z,83.55
2019-05-22T02:55:56.192Z,83.30
2019-05-22T02:58:21.228Z,84.08
2019-05-22T03:00:58.370Z,84.09
2019-05-22T03:03:22.901Z,84.57
2019-05-22T03:05:48.600Z,85.05
2019-05-22T03:08:13.226Z,85.65
2019-05-22T03:10:38.807Z,85.62
2019-05-22T03:13:04.181Z,85.12
2019-05-22T03:15:29.972Z,85.51
2019-05-22T03:17:59.120Z,85.58
2019-05-22T03:20:28.822Z,86.09
2019-05-22T03:23:19.001Z,85.77
2019-05-22T03:25:44.103Z,85.79
2019-05-22T03:28:09.965Z,85.66
2019-05-22T03:30:38.224Z,85.63
2019-05-22T03:33:06.748Z,84.68
2019-05-22T03:35:33.354Z,82.85
2019-05-22T03:37:59.230Z,83.17
2019-05-22T03:40:25.433Z,84.46
2019-05-22T03:42:51.258Z,84.35
2019-05-22T03:45:16.792Z,84.17
2019-05-22T03:47:42.040Z,84.44
2019-05-22T03:50:07.935Z,84.61
2019-05-22T03:52:32.897Z,84.69
2019-05-22T03:54:57.585Z,84.84
2019-05-22T03:57:22.974Z,84.99
2019-05-22T03:59:47.877Z,85.00
2019-05-22T04:02:13.273Z,85.57
2019-05-22T04:04:41.078Z,86.08
2019-05-22T04:07:07.730Z,86.17
2019-05-22T04:09:33.431Z,84.66
2019-05-22T04:11:58.280Z,84.93
2019-05-22T04:14:26.254Z,84.75
2019-05-22T04:16:51.802Z,84.69
2019-05-22T04:19:16.265Z,84.96
2019-05-22T04:21:41.294Z,86.20
2019-05-22T04:24:06.016Z,86.21
2019-05-22T04:26:30.678Z,86.44
2019-05-22T04:28:55.760Z,86.01
2019-05-22T04:31:22.103Z,85.98
2019-05-22T04:33:47.275Z,85.50
2019-05-22T04:36:12.297Z,85.74
2019-05-22T04:38:36.747Z,85.65
2019-05-22T04:41:04.698Z,85.39
2019-05-22T04:43:32.675Z,84.53
2019-05-22T04:46:01.704Z,83.71
2019-05-22T04:48:27.037Z,84.79
2019-05-22T04:50:51.985Z,84.70
2019-05-22T04:53:16.955Z,84.90
2019-05-22T04:55:41.508Z,84.79
2019-05-22T04:58:11.066Z,84.44
2019-05-22T05:00:36.559Z,82.67
2019-05-22T05:03:01.861Z,83.63
2019-05-22T05:05:28.967Z,82.95
2019-05-22T05:07:54.925Z,83.91
2019-05-22T05:10:20.830Z,84.41
2019-05-22T05:12:46.120Z,83.98
2019-05-22T05:15:11.340Z,83.28
2019-05-22T05:17:36.925Z,83.21
2019-05-22T05:20:01.548Z,82.51
2019-05-22T05:22:37.876Z,81.82
2019-05-22T05:25:02.432Z,82.78
2019-05-22T05:27:28.103Z,82.95
2019-05-22T05:29:52.598Z,83.38
2019-05-22T05:32:17.153Z,82.76
2019-05-22T05:34:45.525Z,83.27
2019-05-22T05:37:12.305Z,83.06
2019-05-22T05:39:40.291Z,82.31
2019-05-22T05:42:05.504Z,83.21
2019-05-22T05:44:30.202Z,82.42
2019-05-22T05:46:55.101Z,82.08
2019-05-22T05:49:21.204Z,82.25
2019-05-22T05:51:46.494Z,81.86
2019-05-22T05:54:12.835Z,82.59
2019-05-22T05:56:41.415Z,82.73
2019-05-22T05:59:07.555Z,81.76
2019-05-22T06:01:33.885Z,80.66
2019-05-22T06:04:00.571Z,80.90
2019-05-22T06:06:29.718Z,81.14
2019-05-22T06:08:54.905Z,81.98
2019-05-22T06:11:28.337Z,82.26
2019-05-22T06:13:52.831Z,82.58
2019-05-22T06:16:20.784Z,82.59
2019-05-22T06:18:46.137Z,82.18
2019-05-22T06:21:11.796Z,81.54
2019-05-22T06:23:39.619Z,82.40
2019-05-22T06:26:04.974Z,82.45
2019-05-22T06:28:35.482Z,82.84
2019-05-22T06:31:01.919Z,83.05
2019-05-22T06:33:34.803Z,80.96
2019-05-22T06:36:01.213Z,81.24
2019-05-22T06:38:38.087Z,81.19
2019-05-22T06:41:03.416Z,80.66
2019-05-22T06:43:31.185Z,80.25
2019-05-22T06:45:56.294Z,80.13
2019-05-22T06:48:20.882Z,80.60
2019-05-22T06:50:48.997Z,80.79
2019-05-22T06:53:12.298Z,80.27
2019-05-22T06:55:36.778Z,80.33
2019-05-22T06:58:01.333Z,80.29
2019-05-22T07:00:26.715Z,80.94
2019-05-22T07:02:52.043Z,79.58
2019-05-22T07:05:17.444Z,78.73
2019-05-22T07:07:42.551Z,79.97
2019-05-22T07:10:08.334Z,80.52
2019-05-22T07:12:35.553Z,81.94
2019-05-22T07:15:07.312Z,82.77
2019-05-22T07:17:31.760Z,81.59
2019-05-22T07:19:57.188Z,80.34
2019-05-22T07:22:22.170Z,80.59
2019-05-22T07:24:47.857Z,80.44
2019-05-22T07:27:26.903Z,78.64
2019-05-22T07:29:51.756Z,78.82
2019-05-22T07:32:16.570Z,78.94
2019-05-22T07:34:41.580Z,78.86
2019-05-22T07:37:07.046Z,78.13
2019-05-22T07:39:31.579Z,78.14
2019-05-22T07:41:56.202Z,76.82
2019-05-22T07:44:20.789Z,78.22
2019-05-22T07:46:45.901Z,78.19
2019-05-22T07:49:11.819Z,79.58
2019-05-22T07:51:51.558Z,78.70
2019-05-22T07:54:03.918Z,79.43
2019-05-22T07:56:30.415Z,78.23
2019-05-22T07:58:58.922Z,77.60
2019-05-22T08:01:22.958Z,78.05
2019-05-22T08:03:49.352Z,78.55
2019-05-22T08:06:14.924Z,78.13
2019-05-22T08:08:41.876Z,79.35
2019-05-22T08:11:07.578Z,80.12
2019-05-22T08:13:33.048Z,80.62
2019-05-22T08:15:57.720Z,80.56
2019-05-22T08:18:22.428Z,79.69
2019-05-22T08:20:46.957Z,79.34
2019-05-22T08:23:12.458Z,80.17
2019-05-22T08:25:37.560Z,80.20
2019-05-22T08:28:02.135Z,79.75
2019-05-22T08:30:27.142Z,79.78
2019-05-22T08:32:53.316Z,80.28
2019-05-22T08:35:18.243Z,80.02
2019-05-22T08:37:43.319Z,80.14
2019-05-22T08:40:11.719Z,80.54
2019-05-22T08:42:36.416Z,80.27
2019-05-22T08:45:00.950Z,79.77
2019-05-22T08:47:25.770Z,79.47
2019-05-22T08:49:51.166Z,78.94
2019-05-22T08:52:23.745Z,77.86
2019-05-22T08:54:43.036Z,79.20
2019-05-22T08:57:08.753Z,79.40
2019-05-22T08:59:33.408Z,80.43
2019-05-22T09:01:58.310Z,80.90
2019-05-22T09:04:22.830Z,81.03
2019-05-22T09:06:47.431Z,81.55
2019-05-22T09:09:12.017Z,81.04
2019-05-22T09:11:36.479Z,81.40
2019-05-22T09:14:01.521Z,81.01
2019-05-22T09:16:26.406Z,80.37
2019-05-22T09:18:51.635Z,81.14
2019-05-22T09:21:16.678Z,80.05
2019-05-22T09:23:42.417Z,81.07
2019-05-22T09:26:08.275Z,80.54
2019-05-22T09:28:32.782Z,80.44
2019-05-22T09:30:57.476Z,78.80
2019-05-22T09:33:23.141Z,79.52
2019-05-22T09:35:48.311Z,79.32
2019-05-22T09:38:12.938Z,78.59
2019-05-22T09:40:37.794Z,78.91
2019-05-22T09:43:03.931Z,78.68
2019-05-22T09:45:28.465Z,78.50
2019-05-22T09:47:53.540Z,78.11
2019-05-22T09:50:18.736Z,78.01
2019-05-22T09:52:56.801Z,77.49
2019-05-22T09:55:13.090Z,76.29
2019-05-22T09:57:37.987Z,77.15
2019-05-22T10:00:02.579Z,75.88
2019-05-22T10:02:30.968Z,75.76
2019-05-22T10:04:55.652Z,76.53
2019-05-22T10:07:20.992Z,75.61
2019-05-22T10:09:45.634Z,75.50
2019-05-22T10:12:11.632Z,75.87
2019-05-22T10:14:36.741Z,76.44
2019-05-22T10:17:01.550Z,75.78
2019-05-22T10:19:26.284Z,76.24
2019-05-22T10:21:50.931Z,75.70
2019-05-22T10:24:15.752Z,74.95
2019-05-22T10:26:41.201Z,76.17
2019-05-22T10:29:06.400Z,75.89
2019-05-22T10:31:31.050Z,77.04
2019-05-22T10:33:56.504Z,77.12
2019-05-22T10:36:24.410Z,77.01
2019-05-22T10:38:49.207Z,78.21
2019-05-22T10:41:14.260Z,77.15
2019-05-22T10:43:38.870Z,75.74
2019-05-22T10:46:03.469Z,75.12
2019-05-22T10:48:28.230Z,75.02
2019-05-22T10:50:52.739Z,75.97
2019-05-22T10:53:32.224Z,76.25
2019-05-22T10:55:43.974Z,76.08
2019-05-22T10:58:08.971Z,75.57
2019-05-22T11:00:34.469Z,75.85
2019-05-22T11:02:59.140Z,76.61
2019-05-22T11:05:23.777Z,78.05
2019-05-22T11:07:49.054Z,76.41
2019-05-22T11:10:15.324Z,74.82
2019-05-22T11:12:41.167Z,75.11
2019-05-22T11:15:07.440Z,74.99
2019-05-22T11:17:31.876Z,74.65
2019-05-22T11:19:56.485Z,75.50
2019-05-22T11:22:21.053Z,75.32
2019-05-22T11:24:45.657Z,76.55
2019-05-22T11:27:10.384Z,76.47
2019-05-22T11:29:35.226Z,75.80
2019-05-22T11:32:00.469Z,75.19
2019-05-22T11:34:26.768Z,74.27
2019-05-22T11:36:51.713Z,73.88
2019-05-22T11:39:17.988Z,73.54
2019-05-22T11:41:43.266Z,72.29
2019-05-22T11:44:09.004Z,72.20
2019-05-22T11:46:34.039Z,71.16
2019-05-22T11:48:58.565Z,71.71
2019-05-22T11:51:23.177Z,71.34
2019-05-22T11:53:47.776Z,71.04
2019-05-22T11:56:12.523Z,71.59
2019-05-22T11:58:37.347Z,71.38
2019-05-22T12:01:02.089Z,71.88
2019-05-22T12:03:26.922Z,71.14
2019-05-22T12:05:52.021Z,70.76
2019-05-22T12:08:17.207Z,71.27
2019-05-22T12:10:42.646Z,70.97
2019-05-22T12:13:09.501Z,70.65
2019-05-22T12:15:34.928Z,71.35
2019-05-22T12:18:00.128Z,70.85
2019-05-22T12:20:29.550Z,69.13
2019-05-22T12:22:54.171Z,69.35
2019-05-22T12:25:20.499Z,67.91
2019-05-22T12:27:45.174Z,65.92
2019-05-22T12:30:11.629Z,67.47
2019-05-22T12:32:38.171Z,67.44
2019-05-22T12:35:02.974Z,70.20
2019-05-22T12:37:28.593Z,70.28
2019-05-22T12:39:53.873Z,69.70
2019-05-22T12:42:18.650Z,68.87
2019-05-22T12:44:44.022Z,69.10
2019-05-22T12:47:09.903Z,69.62
2019-05-22T12:49:34.457Z,67.03
2019-05-22T12:52:00.948Z,67.23
2019-05-22T12:54:25.983Z,65.12
2019-05-22T12:56:50.709Z,65.01
2019-05-22T12:59:15.973Z,64.35
2019-05-22T13:01:40.656Z,64.80
2019-05-22T13:04:06.906Z,63.63
2019-05-22T13:06:32.238Z,63.21
2019-05-22T13:08:57.384Z,63.52
2019-05-22T13:11:22.585Z,64.08
2019-05-22T13:13:47.380Z,64.02
2019-05-22T13:16:11.807Z,64.29
2019-05-22T13:18:37.362Z,64.13
2019-05-22T13:21:03.704Z,66.45
2019-05-22T13:23:31.924Z,64.74
2019-05-22T13:25:56.408Z,64.64
2019-05-22T13:28:21.829Z,64.79
2019-05-22T13:30:50.337Z,63.94
2019-05-22T13:33:18.057Z,64.04
2019-05-22T13:35:43.320Z,64.60
2019-05-22T13:38:07.935Z,63.80
2019-05-22T13:40:33.198Z,64.95
2019-05-22T13:42:59.259Z,64.65
2019-05-22T13:45:29.109Z,62.80
2019-05-22T13:47:50.397Z,62.85
2019-05-22T13:50:17.776Z,62.76
2019-05-22T13:52:44.380Z,61.47
2019-05-22T13:55:11.441Z,60.75
2019-05-22T13:57:36.754Z,60.39
2019-05-22T14:00:01.647Z,60.68
2019-05-22T14:02:27.409Z,59.98
2019-05-22T14:04:52.018Z,60.20
2019-05-22T14:07:16.892Z,60.08
2019-05-22T14:09:42.090Z,60.31
2019-05-22T14:12:07.458Z,58.89
2019-05-22T14:14:32.339Z,60.24
2019-05-22T14:16:56.972Z,62.26
2019-05-22T14:19:21.860Z,62.13
2019-05-22T14:21:51.313Z,61.15
2019-05-22T14:24:13.067Z,62.13
2019-05-22T14:26:38.068Z,61.37
2019-05-22T14:29:03.151Z,61.77
2019-05-22T14:31:27.672Z,60.64
2019-05-22T14:33:52.495Z,60.97
2019-05-22T14:36:17.083Z,58.96
2019-05-22T14:38:41.685Z,60.83
2019-05-22T14:41:06.513Z,60.47
2019-05-22T14:43:31.325Z,61.34
2019-05-22T14:45:56.265Z,63.69
2019-05-22T14:48:20.993Z,63.38
2019-05-22T14:50:45.673Z,62.86
2019-05-22T14:53:11.513Z,62.72
2019-05-22T14:55:37.156Z,61.29
2019-05-22T14:58:02.479Z,61.01
2019-05-22T15:00:28.143Z,60.49
2019-05-22T15:02:57.292Z,59.38
2019-05-22T15:05:20.327Z,59.45
2019-05-22T15:07:45.141Z,59.29
2019-05-22T15:10:16.505Z,58.07
2019-05-22T15:12:38.011Z,58.49
2019-05-22T15:15:02.726Z,58.53
2019-05-22T15:17:32.333Z,59.10
2019-05-22T15:19:54.138Z,59.55
2019-05-22T15:22:18.892Z,58.62
2019-05-22T15:24:43.619Z,58.83
2019-05-22T15:27:09.489Z,58.58
2019-05-22T15:29:34.111Z,57.84
2019-05-22T15:31:59.468Z,57.99
2019-05-22T15:34:24.149Z,57.76
2019-05-22T15:36:48.678Z,55.95
2019-05-22T15:39:17.418Z,57.24
2019-05-22T15:41:43.210Z,57.21
2019-05-22T15:44:08.722Z,56.80
2019-05-22T15:46:34.270Z,56.22
2019-05-22T15:48:59.676Z,55.57
2019-05-22T15:51:28.040Z,54.55
2019-05-22T15:53:55.571Z,55.65
2019-05-22T15:56:20.482Z,56.46
2019-05-22T15:58:48.855Z,56.42
2019-05-22T16:01:16.473Z,55.10
2019-05-22T16:03:42.439Z,55.68
2019-05-22T16:06:08.561Z,54.04
2019-05-22T16:08:34.402Z,54.10
2019-05-22T16:11:00.875Z,54.82
2019-05-22T16:13:26.858Z,54.19
2019-05-22T16:15:54.759Z,54.74
2019-05-22T16:18:24.054Z,55.15
2019-05-22T16:20:49.777Z,55.62
2019-05-22T16:23:15.261Z,54.89
2019-05-22T16:25:40.141Z,54.74
2019-05-22T16:28:05.260Z,53.83
2019-05-22T16:30:30.749Z,53.45
2019-05-22T16:32:56.304Z,53.97
2019-05-22T16:35:21.791Z,54.35
2019-05-22T16:37:47.345Z,54.47
2019-05-22T16:40:13.135Z,53.31
2019-05-22T16:42:38.991Z,52.85
2019-05-22T16:45:05.879Z,52.75
2019-05-22T16:47:33.517Z,52.29
2019-05-22T16:49:58.359Z,52.55
2019-05-22T16:52:25.423Z,52.00
2019-05-22T16:54:50.017Z,52.52
2019-05-22T16:57:15.499Z,52.47
2019-05-22T16:59:41.355Z,51.64
2019-05-22T17:02:07.631Z,51.16
2019-05-22T17:04:32.136Z,52.20
2019-05-22T17:06:56.664Z,51.66
2019-05-22T17:09:21.774Z,51.06
2019-05-22T17:11:47.430Z,51.66
2019-05-22T17:14:14.599Z,51.54
2019-05-22T17:16:39.798Z,52.26
2019-05-22T17:19:23.716Z,51.83
2019-05-22T17:21:32.311Z,52.36
2019-05-22T17:23:59.420Z,53.47
2019-05-22T17:26:24.158Z,53.20
2019-05-22T17:28:49.091Z,52.70
2019-05-22T17:31:15.376Z,52.45
2019-05-22T17:33:40.578Z,52.57
2019-05-22T17:36:06.866Z,52.50
2019-05-22T17:38:32.065Z,54.00
2019-05-22T17:40:57.337Z,53.13
2019-05-22T17:43:24.163Z,52.20
2019-05-22T17:45:49.199Z,52.49
2019-05-22T17:48:16.364Z,51.85
2019-05-22T17:50:41.741Z,52.60
2019-05-22T17:53:06.716Z,52.19
2019-05-22T17:55:31.992Z,52.53
2019-05-22T17:57:57.488Z,53.43
2019-05-22T18:00:29.574Z,53.50
2019-05-22T18:02:54.657Z,54.10
2019-05-22T18:05:19.735Z,54.68
2019-05-22T18:07:44.377Z,54.40
2019-05-22T18:10:10.351Z,53.81
2019-05-22T18:12:35.106Z,53.09
2019-05-22T18:14:59.986Z,52.98
2019-05-22T18:17:24.773Z,53.58
2019-05-22T18:19:49.367Z,53.47
2019-05-22T18:22:14.648Z,52.82
2019-05-22T18:24:39.189Z,52.75
2019-05-22T18:27:03.675Z,52.79
2019-05-22T18:29:28.291Z,52.44
2019-05-22T18:31:52.899Z,53.12
2019-05-22T18:34:17.718Z,52.82
2019-05-22T18:36:42.396Z,52.27
2019-05-22T18:39:09.017Z,51.72
2019-05-22T18:41:33.584Z,51.90
2019-05-22T18:43:59.048Z,53.83
2019-05-22T18:46:23.745Z,53.39
2019-05-22T18:48:48.468Z,53.48
2019-05-22T18:51:13.294Z,53.80
2019-05-22T18:53:38.675Z,54.32
2019-05-22T18:56:04.063Z,52.85
2019-05-22T18:58:28.825Z,52.43
2019-05-22T19:00:53.533Z,52.27
2019-05-22T19:03:18.277Z,52.89
2019-05-22T19:05:43.576Z,51.94
2019-05-22T19:08:08.156Z,51.96
2019-05-22T19:10:32.753Z,51.84
2019-05-22T19:12:57.922Z,52.09
2019-05-22T19:15:22.707Z,52.06
2019-05-22T19:17:47.559Z,52.47
2019-05-22T19:20:12.251Z,52.48
2019-05-22T19:22:37.130Z,52.76
2019-05-22T19:25:02.206Z,52.89
2019-05-22T19:27:26.670Z,52.69
2019-05-22T19:29:51.246Z,52.77
2019-05-22T19:32:15.938Z,52.87
2019-05-22T19:34:40.559Z,53.14
2019-05-22T19:37:05.344Z,53.11
2019-05-22T19:39:30.238Z,53.51
2019-05-22T19:42:02.689Z,53.50
2019-05-22T19:44:21.806Z,53.43
2019-05-22T19:46:46.390Z,53.85
2019-05-22T19:49:11.685Z,54.24
2019-05-22T19:51:37.373Z,54.33
2019-05-22T19:54:01.913Z,54.18
2019-05-22T19:56:26.775Z,54.29
2019-05-22T19:58:52.088Z,54.26
2019-05-22T20:01:17.742Z,54.42
2019-05-22T20:03:42.430Z,54.42
2019-05-22T20:06:07.311Z,54.76
2019-05-22T20:08:32.022Z,54.77
2019-05-22T20:10:56.463Z,55.22
2019-05-22T20:13:23.690Z,55.55
2019-05-22T20:15:48.370Z,56.02
2019-05-22T20:18:13.612Z,56.06
2019-05-22T20:20:38.664Z,56.84
2019-05-22T20:23:04.577Z,56.97
2019-05-22T20:25:29.265Z,57.01
2019-05-22T20:27:54.608Z,57.00
2019-05-22T20:30:21.746Z,56.94
2019-05-22T20:32:46.256Z,56.93
2019-05-22T20:35:11.536Z,56.77
2019-05-22T20:37:36.064Z,56.53
2019-05-22T20:40:00.796Z,56.34
2019-05-22T20:42:25.559Z,56.28
2019-05-22T20:44:50.235Z,56.47
2019-05-22T20:47:16.474Z,56.40
2019-05-22T20:49:44.955Z,56.01
2019-05-22T20:52:10.865Z,56.24
2019-05-22T20:54:36.577Z,56.12
2019-05-22T20:57:02.308Z,56.36
2019-05-22T20:59:27.130Z,56.68
2019-05-22T21:01:51.764Z,56.58
2019-05-22T21:04:19.744Z,56.87
2019-05-22T21:06:50.021Z,57.03
2019-05-22T21:09:14.680Z,57.46
2019-05-22T21:11:40.469Z,57.21
2019-05-22T21:14:05.922Z,57.18
2019-05-22T21:16:31.619Z,57.29
2019-05-22T21:18:57.107Z,57.31
2019-05-22T21:21:23.729Z,57.28
2019-05-22T21:23:49.118Z,57.58
2019-05-22T21:26:15.253Z,58.14
2019-05-22T21:28:40.233Z,58.58
2019-05-22T21:31:05.924Z,58.44
2019-05-22T21:33:30.808Z,58.62
2019-05-22T21:35:55.388Z,58.10
2019-05-22T21:38:20.664Z,58.34
2019-05-22T21:40:45.817Z,59.54
2019-05-22T21:43:10.882Z,59.03
2019-05-22T21:45:35.506Z,59.12
2019-05-22T21:48:00.110Z,59.38
2019-05-22T21:50:25.818Z,59.90
2019-05-22T21:52:52.787Z,59.31
2019-05-22T21:55:19.342Z,59.45
2019-05-22T21:57:45.518Z,59.55
2019-05-22T22:00:14.706Z,59.44
2019-05-22T22:02:42.255Z,59.14
2019-05-22T22:05:08.822Z,59.29
2019-05-22T22:07:33.324Z,59.38
2019-05-22T22:09:59.919Z,59.46
2019-05-22T22:12:24.948Z,59.34
2019-05-22T22:14:49.666Z,59.56
2019-05-22T22:17:14.807Z,59.28
2019-05-22T22:19:39.392Z,59.43
2019-05-22T22:22:05.329Z,59.56
2019-05-22T22:24:30.386Z,59.72
2019-05-22T22:26:55.499Z,60.04
2019-05-22T22:29:20.705Z,59.93
2019-05-22T22:31:46.325Z,60.14
2019-05-22T22:34:17.696Z,60.36
2019-05-22T22:36:42.516Z,60.21
2019-05-22T22:39:08.206Z,60.64
2019-05-22T22:41:33.217Z,60.33
2019-05-22T22:43:58.445Z,60.68
2019-05-22T22:46:30.206Z,60.92
2019-05-22T22:48:57.862Z,60.77
2019-05-22T22:51:25.325Z,60.97
2019-05-22T22:53:50.394Z,60.74
2019-05-22T22:56:15.930Z,60.67
2019-05-22T22:58:41.116Z,61.08
2019-05-22T23:01:09.438Z,60.97
2019-05-22T23:03:35.895Z,61.15
2019-05-22T23:06:01.013Z,61.41
2019-05-22T23:08:29.605Z,61.98
2019-05-22T23:10:54.824Z,61.74
2019-05-22T23:13:19.436Z,61.97
2019-05-22T23:15:44.472Z,61.56
2019-05-22T23:18:10.758Z,61.99
2019-05-22T23:20:34.117Z,62.23
2019-05-22T23:22:57.421Z,61.99
2019-05-22T23:25:23.887Z,62.35
2019-05-22T23:27:48.679Z,62.55
2019-05-22T23:30:14.072Z,62.63
2019-05-22T23:32:41.343Z,63.03
2019-05-22T23:35:07.519Z,62.81
2019-05-22T23:37:32.345Z,63.00
2019-05-22T23:39:57.434Z,62.88
2019-05-22T23:42:25.736Z,62.64
2019-05-22T23:44:53.922Z,62.80
2019-05-22T23:47:19.105Z,62.99
2019-05-22T23:49:43.665Z,63.06
2019-05-22T23:52:10.598Z,63.61
2019-05-22T23:54:36.190Z,63.29
2019-05-22T23:57:01.886Z,63.61
2019-05-22T23:59:27.944Z,63.57
